Time;durP1;ratioP1;P1;durP2;ratioP2;P2;SDS_P1;SDS_P2;PMS_P1;PMS_P2;Temp;Humidity;BMP_temperature;BMP_pressure;BME280_temperature;BME280_humidity;BME280_pressure;Samples;Min_cycle;Max_cycle;Signal;HPM_P1;HPM_P2
2022/06/06 00:00:10;;;;;;;19.63;9.02;;;22.30;58.70;;;;;;4981482;28;20513;-78
2022/06/06 00:02:39;;;;;;;23.17;8.07;;;22.20;58.30;;;;;;4984505;28;20030;-77
2022/06/06 00:05:05;;;;;;;20.35;8.93;;;22.20;58.30;;;;;;4991068;28;20387;-76
2022/06/06 00:07:31;;;;;;;24.10;8.07;;;22.20;58.40;;;;;;4986695;28;20038;-75
2022/06/06 00:09:57;;;;;;;17.70;7.97;;;22.10;58.60;;;;;;4974929;28;20431;-75
2022/06/06 00:12:24;;;;;;;27.25;8.15;;;22.10;58.80;;;;;;4991781;28;20034;-76
2022/06/06 00:14:50;;;;;;;21.80;7.60;;;22.10;58.90;;;;;;4992445;28;20026;-75
2022/06/06 00:17:16;;;;;;;17.77;7.78;;;22.10;59.00;;;;;;4990633;28;20097;-75
2022/06/06 00:19:42;;;;;;;18.27;7.85;;;22.10;58.90;;;;;;4990478;28;20026;-75
2022/06/06 00:22:08;;;;;;;17.38;7.90;;;22.10;58.90;;;;;;4967025;28;20042;-75
2022/06/06 00:24:34;;;;;;;23.88;7.93;;;22.10;58.80;;;;;;4992326;28;20089;-75
2022/06/06 00:27:00;;;;;;;20.50;6.82;;;22.10;58.80;;;;;;4988683;28;20036;-75
2022/06/06 00:29:27;;;;;;;25.95;8.15;;;22.10;58.80;;;;;;4990912;28;20396;-75
2022/06/06 00:34:52;;;;;;;17.73;7.05;;;22.10;58.80;;;;;;4991002;28;20051;-75
2022/06/06 00:37:22;;;;;;;14.23;7.50;;;22.10;58.80;;;;;;4989672;28;20466;-75
2022/06/06 00:39:49;;;;;;;17.25;7.30;;;22.10;58.90;;;;;;4988653;28;20034;-75
2022/06/06 00:42:30;;;;;;;17.73;6.97;;;22.10;58.90;;;;;;4989915;28;20038;-75
2022/06/06 00:45:14;;;;;;;18.17;7.00;;;22.10;59.00;;;;;;4990778;28;20487;-75
2022/06/06 00:47:41;;;;;;;12.93;7.45;;;22.10;58.90;;;;;;4972858;28;20037;-75
2022/06/06 00:50:18;;;;;;;11.75;6.97;;;22.10;58.90;;;;;;4991806;28;20522;-75
2022/06/06 00:52:45;;;;;;;14.25;7.20;;;22.10;58.90;;;;;;4991203;28;20407;-75
2022/06/06 00:55:19;;;;;;;15.27;6.43;;;22.10;58.80;;;;;;4991853;28;20072;-75
2022/06/06 00:57:50;;;;;;;16.27;7.00;;;22.10;58.90;;;;;;4989348;28;20526;-75
2022/06/06 01:00:18;;;;;;;14.48;6.80;;;22.10;58.90;;;;;;4982864;28;20018;-75
2022/06/06 01:02:48;;;;;;;16.42;6.88;;;22.00;58.90;;;;;;4992060;28;20034;-75
2022/06/06 01:05:16;;;;;;;19.85;6.38;;;22.10;59.10;;;;;;4990006;28;20050;-75
2022/06/06 01:07:42;;;;;;;16.05;6.60;;;22.10;59.20;;;;;;4986593;28;20032;-75
2022/06/06 01:10:09;;;;;;;12.75;6.45;;;22.00;59.20;;;;;;4991519;28;20105;-76
2022/06/06 01:12:37;;;;;;;14.35;6.65;;;22.10;59.30;;;;;;4991698;28;20045;-75
2022/06/06 01:15:07;;;;;;;11.48;6.57;;;22.10;59.40;;;;;;4991110;28;20105;-74
2022/06/06 01:17:51;;;;;;;14.25;6.95;;;22.10;59.50;;;;;;4989565;28;20030;-74
2022/06/06 01:20:44;;;;;;;11.93;6.00;;;22.00;59.50;;;;;;5006683;28;20080;-75
2022/06/06 01:23:28;;;;;;;10.13;6.18;;;22.10;59.70;;;;;;4990927;28;20410;-74
2022/06/06 01:26:09;;;;;;;14.52;6.20;;;22.10;59.70;;;;;;4990668;28;20034;-75
2022/06/06 01:28:50;;;;;;;11.85;6.07;;;22.10;59.80;;;;;;4991363;28;20042;-75
2022/06/06 01:31:26;;;;;;;14.18;6.70;;;22.10;59.80;;;;;;4987878;28;20498;-75
2022/06/06 01:34:02;;;;;;;13.50;5.85;;;22.00;59.80;;;;;;4989308;28;20031;-75
2022/06/06 01:36:31;;;;;;;14.50;6.80;;;22.10;59.90;;;;;;4990184;28;20019;-74
2022/06/06 01:38:59;;;;;;;12.80;6.43;;;22.00;60.50;;;;;;4986793;28;20113;-75
2022/06/06 01:41:45;;;;;;;10.63;6.05;;;22.10;60.10;;;;;;4991457;28;20018;-75
2022/06/06 01:44:29;;;;;;;9.70;6.00;;;22.10;60.20;;;;;;4989939;28;20035;-75
2022/06/06 01:46:58;;;;;;;10.75;6.38;;;22.10;60.40;;;;;;5003824;28;20387;-75
2022/06/06 01:49:24;;;;;;;12.60;6.40;;;22.10;60.50;;;;;;4989702;28;20106;-75
2022/06/06 01:52:09;;;;;;;10.25;5.93;;;22.10;60.70;;;;;;4991336;28;20585;-75
2022/06/06 01:54:35;;;;;;;11.52;6.13;;;22.10;60.70;;;;;;4984577;28;20030;-75
2022/06/06 01:57:04;;;;;;;13.65;6.10;;;22.10;60.70;;;;;;4991553;28;20030;-75
2022/06/06 01:59:30;;;;;;;13.07;6.20;;;22.00;60.70;;;;;;4989792;28;20022;-75
2022/06/06 02:01:56;;;;;;;15.82;6.07;;;22.10;60.70;;;;;;4991203;28;20471;-75
2022/06/06 02:04:22;;;;;;;13.20;6.22;;;22.00;60.70;;;;;;4988860;28;20023;-76
2022/06/06 02:06:48;;;;;;;10.48;5.82;;;22.10;60.70;;;;;;4988828;28;20053;-76
2022/06/06 02:09:14;;;;;;;9.50;5.72;;;22.10;60.70;;;;;;4989309;28;20026;-75
2022/06/06 02:11:40;;;;;;;10.50;6.13;;;22.10;61.00;;;;;;4988674;28;20093;-75
2022/06/06 02:14:07;;;;;;;12.07;6.28;;;22.10;60.80;;;;;;4989144;28;20030;-75
2022/06/06 02:16:33;;;;;;;13.50;6.15;;;22.10;60.90;;;;;;4990289;28;20451;-75
2022/06/06 02:18:59;;;;;;;9.95;5.60;;;22.10;60.90;;;;;;4991223;28;20138;-75
2022/06/06 02:21:25;;;;;;;9.85;5.55;;;22.10;60.90;;;;;;4992311;28;20026;-75
2022/06/06 02:23:51;;;;;;;10.02;5.40;;;22.10;60.90;;;;;;4994674;28;20514;-75
2022/06/06 02:26:17;;;;;;;11.05;6.00;;;22.10;61.00;;;;;;4992686;28;20109;-75
2022/06/06 02:28:42;;;;;;;12.10;6.20;;;22.10;61.10;;;;;;4991893;28;20030;-75
2022/06/06 02:31:09;;;;;;;10.32;6.05;;;22.10;61.20;;;;;;4992997;28;20053;-76
2022/06/06 02:33:36;;;;;;;12.32;5.93;;;22.10;61.30;;;;;;4992991;28;20035;-75
2022/06/06 02:36:02;;;;;;;10.13;6.30;;;22.10;61.20;;;;;;4992067;28;20041;-75
2022/06/06 02:38:28;;;;;;;11.85;6.47;;;22.10;61.80;;;;;;4992957;28;20030;-75
2022/06/06 02:40:55;;;;;;;11.18;5.80;;;22.10;61.30;;;;;;4992492;28;20065;-75
2022/06/06 02:43:21;;;;;;;11.48;5.97;;;22.10;61.30;;;;;;5001267;28;20026;-75
2022/06/06 02:45:50;;;;;;;8.55;5.70;;;22.10;61.50;;;;;;4992988;28;20170;-75
2022/06/06 02:48:16;;;;;;;9.57;5.70;;;22.00;61.50;;;;;;4991411;28;20031;-75
2022/06/06 02:50:43;;;;;;;9.70;5.65;;;22.10;61.80;;;;;;4991445;28;20034;-75
2022/06/06 02:53:09;;;;;;;11.27;6.00;;;22.00;61.40;;;;;;4994038;28;20455;-75
2022/06/06 02:55:36;;;;;;;9.48;6.00;;;22.10;61.60;;;;;;4974734;28;20032;-75
2022/06/06 02:58:02;;;;;;;8.65;6.15;;;22.10;61.60;;;;;;4992971;28;20394;-76
2022/06/06 03:00:32;;;;;;;11.90;5.53;;;22.10;61.60;;;;;;4991581;28;20080;-75
2022/06/06 03:02:58;;;;;;;9.10;5.68;;;22.10;61.60;;;;;;4993110;28;20035;-75
2022/06/06 03:05:52;;;;;;;11.02;6.05;;;22.10;61.70;;;;;;4992784;28;20449;-76
2022/06/06 03:08:24;;;;;;;10.02;6.18;;;22.00;61.70;;;;;;4991724;28;20030;-75
2022/06/06 03:11:01;;;;;;;7.43;5.60;;;22.00;61.90;;;;;;4993919;28;20513;-75
2022/06/06 03:13:44;;;;;;;8.82;6.53;;;22.10;62.10;;;;;;4990989;28;20117;-75
2022/06/06 03:22:25;;;;;;;11.10;5.57;;;22.10;62.30;;;;;;4991700;28;20030;-75
2022/06/06 03:25:09;;;;;;;10.40;6.55;;;22.10;62.40;;;;;;4992113;28;20493;-75
2022/06/06 03:27:50;;;;;;;9.23;7.03;;;22.10;62.60;;;;;;4991847;28;20032;-75
2022/06/06 03:30:31;;;;;;;11.27;5.90;;;22.10;62.70;;;;;;4987719;28;20030;-75
2022/06/06 03:33:02;;;;;;;8.82;5.93;;;22.10;62.60;;;;;;4992372;28;20038;-75
2022/06/06 03:35:43;;;;;;;10.23;5.80;;;22.10;63.40;;;;;;4993163;28;20106;-75
2022/06/06 03:38:37;;;;;;;12.48;6.63;;;22.10;63.00;;;;;;4992203;28;20026;-75
2022/06/06 03:41:25;;;;;;;9.32;5.80;;;22.10;63.00;;;;;;4990101;28;20049;-75
2022/06/06 03:44:12;;;;;;;11.50;6.00;;;22.10;63.10;;;;;;4992401;28;20066;-75
2022/06/06 03:46:58;;;;;;;8.27;5.85;;;22.10;63.30;;;;;;4992333;28;20030;-75
2022/06/06 03:49:49;;;;;;;9.60;5.90;;;22.10;63.50;;;;;;4992778;28;20501;-75
2022/06/06 03:52:21;;;;;;;8.45;6.40;;;22.10;63.60;;;;;;4990877;28;20452;-75
2022/06/06 03:54:49;;;;;;;9.95;6.47;;;22.10;63.80;;;;;;4990981;28;20045;-75
2022/06/06 03:57:16;;;;;;;8.43;6.03;;;22.00;63.80;;;;;;4992548;28;20033;-75
2022/06/06 03:59:48;;;;;;;9.23;6.53;;;22.10;64.00;;;;;;4992316;28;20058;-75
2022/06/06 04:02:19;;;;;;;9.63;6.30;;;22.10;64.20;;;;;;4999388;28;20026;-75
2022/06/06 04:04:46;;;;;;;9.40;6.50;;;22.10;64.20;;;;;;4992074;28;20041;-75
2022/06/06 04:07:12;;;;;;;9.45;6.40;;;22.10;64.30;;;;;;4990794;28;20056;-75
2022/06/06 04:09:38;;;;;;;10.57;6.43;;;22.10;64.30;;;;;;4992968;28;20134;-75
2022/06/06 04:12:50;;;;;;;9.05;6.47;;;22.10;64.50;;;;;;4974395;28;20038;-75
2022/06/06 04:15:21;;;;;;;9.93;6.30;;;22.10;64.70;;;;;;4991904;28;20023;-76
2022/06/06 04:18:11;;;;;;;8.32;6.35;;;22.10;64.80;;;;;;4992131;28;20037;-76
2022/06/06 04:21:01;;;;;;;11.50;6.50;;;22.10;64.90;;;;;;4991246;28;20072;-75
2022/06/06 04:23:33;;;;;;;;;;;22.10;65.00;;;;;;4989750;28;20081;-75
2022/06/06 04:26:01;;;;;;;9.70;6.68;;;22.10;65.10;;;;;;4992377;28;19910;-75
2022/06/06 04:28:41;;;;;;;10.05;6.50;;;22.10;65.10;;;;;;4989959;28;20026;-75
2022/06/06 04:31:07;;;;;;;12.93;6.88;;;22.10;65.00;;;;;;4990889;28;20121;-75
2022/06/06 04:33:49;;;;;;;10.20;6.25;;;22.10;65.30;;;;;;4991231;28;20094;-75
2022/06/06 04:36:22;;;;;;;11.63;6.80;;;22.10;65.30;;;;;;4990972;28;20406;-75
2022/06/06 04:39:04;;;;;;;9.05;6.65;;;22.10;65.30;;;;;;4991743;28;20058;-75
2022/06/06 04:41:45;;;;;;;12.68;6.82;;;22.10;65.30;;;;;;4985325;28;20061;-75
2022/06/06 04:44:39;;;;;;;8.93;6.30;;;22.10;65.40;;;;;;4990769;28;20085;-75
2022/06/06 04:47:21;;;;;;;13.75;6.68;;;22.10;65.40;;;;;;4990565;28;20038;-75
2022/06/06 04:49:47;;;;;;;7.95;5.90;;;22.10;65.50;;;;;;4991340;28;20153;-75
2022/06/06 04:52:14;;;;;;;9.85;6.50;;;22.10;65.70;;;;;;4990550;28;20026;-75
2022/06/06 04:54:42;;;;;;;9.10;6.45;;;22.10;65.70;;;;;;4991313;28;20497;-75
2022/06/06 04:57:09;;;;;;;7.68;6.32;;;22.10;66.40;;;;;;4990942;28;20026;-75
2022/06/06 04:59:37;;;;;;;9.73;6.28;;;22.10;65.80;;;;;;4991335;28;20027;-75
2022/06/06 05:02:04;;;;;;;11.95;6.32;;;22.00;65.70;;;;;;4991368;28;20027;-75
2022/06/06 05:04:29;;;;;;;8.93;6.32;;;22.10;65.90;;;;;;4991791;28;20049;-75
2022/06/06 05:06:58;;;;;;;8.35;5.75;;;22.10;66.00;;;;;;4990894;28;20034;-75
2022/06/06 05:09:26;;;;;;;9.07;6.40;;;22.10;66.00;;;;;;4991537;28;20501;-75
2022/06/06 05:12:11;;;;;;;10.40;6.65;;;22.10;66.10;;;;;;4990900;28;20038;-76
2022/06/06 05:14:37;;;;;;;8.40;6.18;;;22.10;66.10;;;;;;4989679;28;20034;-76
2022/06/06 05:17:32;;;;;;;8.70;5.97;;;22.10;66.20;;;;;;4986807;28;20494;-76
2022/06/06 05:20:29;;;;;;;10.18;6.47;;;22.10;66.20;;;;;;4991543;28;20026;-76
2022/06/06 05:23:01;;;;;;;9.77;6.43;;;22.00;66.10;;;;;;4991017;28;20392;-76
2022/06/06 05:26:02;;;;;;;10.25;6.13;;;22.10;66.20;;;;;;4990492;28;20479;-75
2022/06/06 05:28:41;;;;;;;9.38;6.55;;;22.10;66.20;;;;;;4958814;28;20026;-76
2022/06/06 05:31:28;;;;;;;9.35;6.40;;;22.10;66.30;;;;;;4990006;28;20129;-75
2022/06/06 05:33:56;;;;;;;8.75;5.97;;;22.10;66.20;;;;;;5011806;23;20073;-72
2022/06/06 05:36:55;;;;;;;8.43;6.13;;;22.10;66.20;;;;;;5008458;28;20039;-73
2022/06/06 05:39:21;;;;;;;8.18;5.70;;;22.10;66.30;;;;;;5001564;28;20018;-73
2022/06/06 05:41:46;;;;;;;7.75;6.18;;;22.10;66.40;;;;;;5010980;28;20426;-72
2022/06/06 05:44:23;;;;;;;10.93;6.57;;;22.10;66.40;;;;;;5009432;28;20041;-72
2022/06/06 05:47:23;;;;;;;9.35;6.00;;;22.10;66.60;;;;;;5010698;28;20030;-72
2022/06/06 05:49:54;;;;;;;8.68;6.05;;;22.10;67.20;;;;;;5010292;28;20037;-72
2022/06/06 05:52:27;;;;;;;8.70;5.80;;;22.10;66.70;;;;;;5005423;28;20104;-72
2022/06/06 05:55:02;;;;;;;8.07;6.22;;;22.10;66.70;;;;;;5014211;28;20044;-72
2022/06/06 05:57:54;;;;;;;8.73;5.85;;;22.10;66.90;;;;;;5013965;28;20026;-72
2022/06/06 06:00:32;;;;;;;9.40;6.28;;;22.10;66.90;;;;;;5009589;28;20104;-72
2022/06/06 06:03:07;;;;;;;6.78;5.72;;;22.10;67.00;;;;;;5012376;28;20065;-72
2022/06/06 06:06:02;;;;;;;8.32;5.60;;;22.10;67.00;;;;;;5012313;28;20029;-72
2022/06/06 06:08:58;;;;;;;8.77;5.75;;;22.10;67.10;;;;;;5006994;28;20025;-72
2022/06/06 06:12:01;;;;;;;8.93;5.90;;;22.10;67.10;;;;;;5005814;28;20272;-72
2022/06/06 06:14:27;;;;;;;7.65;5.80;;;22.10;67.10;;;;;;5005910;28;20029;-72
2022/06/06 06:16:58;;;;;;;7.28;6.00;;;22.10;67.20;;;;;;5013333;28;20092;-72
2022/06/06 06:19:43;;;;;;;7.55;5.88;;;22.10;67.10;;;;;;5013324;28;20026;-72
2022/06/06 06:22:11;;;;;;;8.25;6.00;;;22.10;67.10;;;;;;5011734;28;20037;-72
2022/06/06 06:24:41;;;;;;;8.23;5.32;;;22.10;67.10;;;;;;5010804;28;20502;-72
2022/06/06 06:27:08;;;;;;;7.85;5.95;;;22.10;67.20;;;;;;5011360;28;20021;-72
2022/06/06 06:29:34;;;;;;;9.63;5.85;;;22.10;67.10;;;;;;5013466;28;20137;-72
2022/06/06 06:32:28;;;;;;;9.13;6.05;;;22.10;67.10;;;;;;5011546;28;20053;-72
2022/06/06 06:35:25;;;;;;;8.02;5.47;;;22.10;67.20;;;;;;5013239;28;20041;-72
2022/06/06 06:38:16;;;;;;;10.32;5.40;;;22.20;66.50;;;;;;5009660;28;20030;-71
2022/06/06 06:41:29;;;;;;;12.13;5.40;;;22.20;66.10;;;;;;5012985;28;20037;-71
2022/06/06 06:44:11;;;;;;;16.40;6.30;;;22.20;66.10;;;;;;5003683;28;20056;-71
2022/06/06 06:46:48;;;;;;;10.95;7.25;;;22.20;66.40;;;;;;5010641;28;20030;-71
2022/06/06 06:49:33;;;;;;;8.90;6.65;;;22.20;66.70;;;;;;5010986;28;20414;-72
2022/06/06 06:52:22;;;;;;;9.38;7.20;;;22.20;66.70;;;;;;5013815;28;20038;-71
2022/06/06 06:55:29;;;;;;;22.70;8.13;;;22.30;66.70;;;;;;5010695;28;20030;-72
2022/06/06 06:58:19;;;;;;;14.70;7.72;;;22.20;67.30;;;;;;4982897;28;20042;-71
2022/06/06 07:01:00;;;;;;;11.45;6.68;;;22.20;67.20;;;;;;5009113;28;20027;-71
2022/06/06 07:10:04;;;;;;;11.95;6.45;;;22.20;66.90;;;;;;4998982;28;20516;-71
2022/06/06 07:13:03;;;;;;;16.30;6.78;;;22.20;67.00;;;;;;5001251;28;20129;-71
2022/06/06 07:15:58;;;;;;;13.75;5.85;;;22.30;67.20;;;;;;4997674;28;20510;-72
2022/06/06 07:18:29;;;;;;;7.40;5.25;;;22.30;67.30;;;;;;5011547;28;20171;-71
2022/06/06 07:20:57;;;;;;;15.73;6.40;;;22.30;67.10;;;;;;5012259;28;20030;-71
2022/06/06 07:23:29;;;;;;;12.25;5.97;;;22.30;67.10;;;;;;5012013;28;20034;-72
2022/06/06 07:25:57;;;;;;;33.38;6.68;;;22.30;67.30;;;;;;5011136;28;20030;-72
2022/06/06 07:28:24;;;;;;;41.90;7.40;;;22.30;66.80;;;;;;5010796;28;20041;-72
2022/06/06 07:31:14;;;;;;;39.47;6.75;;;22.30;66.80;;;;;;5008922;28;20030;-72
2022/06/06 07:34:08;;;;;;;24.67;6.93;;;22.40;66.90;;;;;;5005981;28;20044;-72
2022/06/06 07:36:50;;;;;;;23.48;5.93;;;22.30;66.60;;;;;;5012910;28;20391;-72
2022/06/06 07:39:26;;;;;;;16.55;6.30;;;22.30;66.60;;;;;;5007347;28;20026;-72
2022/06/06 07:41:58;;;;;;;23.15;6.45;;;22.30;66.40;;;;;;5011727;28;20033;-72
2022/06/06 07:44:50;;;;;;;18.15;5.93;;;22.30;66.60;;;;;;5011750;28;20119;-72
2022/06/06 07:47:40;;;;;;;19.63;6.25;;;22.20;66.50;;;;;;5010884;28;20109;-72
2022/06/06 07:50:18;;;;;;;17.30;6.53;;;22.20;66.50;;;;;;5012933;28;20026;-72
2022/06/06 07:53:05;;;;;;;16.55;5.65;;;22.20;66.40;;;;;;5011366;28;20109;-72
2022/06/06 07:55:48;;;;;;;17.55;6.00;;;22.30;66.40;;;;;;4994171;28;20402;-72
2022/06/06 07:58:24;;;;;;;13.55;5.55;;;22.30;66.40;;;;;;5011574;28;20032;-72
2022/06/06 08:01:26;;;;;;;14.85;6.10;;;22.20;66.30;;;;;;5009673;28;20394;-72
2022/06/06 08:04:07;;;;;;;20.73;5.72;;;22.30;66.30;;;;;;4989956;28;20057;-72
2022/06/06 08:06:49;;;;;;;16.48;5.93;;;22.30;66.00;;;;;;5012713;28;20474;-72
2022/06/06 08:09:21;;;;;;;14.63;5.78;;;22.30;66.10;;;;;;5011797;28;20505;-72
2022/06/06 08:12:12;;;;;;;9.50;5.18;;;22.30;66.00;;;;;;5010853;28;20034;-72
2022/06/06 08:14:59;;;;;;;12.82;5.25;;;22.30;66.00;;;;;;5011420;28;20113;-72
2022/06/06 08:17:45;;;;;;;12.90;5.95;;;22.30;65.90;;;;;;4995579;28;20076;-72
2022/06/06 08:20:27;;;;;;;12.68;5.15;;;22.30;65.70;;;;;;5009297;28;20112;-72
2022/06/06 08:22:57;;;;;;;13.23;5.32;;;22.30;65.70;;;;;;5007780;28;20045;-72
2022/06/06 08:25:24;;;;;;;10.73;5.82;;;22.30;65.60;;;;;;5011212;28;20482;-72
2022/06/06 08:27:51;;;;;;;12.82;5.20;;;22.40;65.60;;;;;;5010485;28;20433;-72
2022/06/06 08:30:19;;;;;;;11.73;5.40;;;22.30;65.50;;;;;;4998642;28;20049;-72
2022/06/06 08:32:47;;;;;;;10.38;5.25;;;22.30;65.40;;;;;;5010338;28;20025;-72
2022/06/06 08:35:13;;;;;;;8.00;4.93;;;22.30;65.50;;;;;;5007310;28;20021;-72
2022/06/06 08:38:11;;;;;;;10.90;5.32;;;22.30;65.50;;;;;;5011400;28;20430;-72
2022/06/06 08:40:52;;;;;;;12.60;5.75;;;22.30;65.40;;;;;;5004460;28;20121;-72
2022/06/06 08:43:41;;;;;;;8.57;5.47;;;22.30;65.40;;;;;;5002602;28;20512;-72
2022/06/06 08:46:40;;;;;;;12.43;5.50;;;22.30;65.50;;;;;;5010346;28;20041;-72
2022/06/06 08:52:34;;;;;;;12.68;4.97;;;22.30;65.30;;;;;;5001721;28;20064;-72
2022/06/06 08:55:16;;;;;;;8.57;5.20;;;22.30;65.30;;;;;;5009355;28;20037;-72
2022/06/06 08:57:51;;;;;;;9.05;4.63;;;22.30;65.40;;;;;;5008599;28;20274;-72
2022/06/06 09:00:24;;;;;;;14.60;5.32;;;22.30;65.80;;;;;;5010888;28;20041;-72
2022/06/06 09:03:09;;;;;;;15.35;6.25;;;22.30;65.30;;;;;;5011612;28;20030;-72
2022/06/06 09:06:07;;;;;;;16.13;5.28;;;22.30;65.40;;;;;;5011238;28;20025;-72
2022/06/06 09:08:41;;;;;;;10.68;4.82;;;22.30;65.90;;;;;;5009408;28;20229;-72
2022/06/06 09:11:39;;;;;;;7.60;4.65;;;22.30;65.10;;;;;;5011221;28;20033;-72
2022/06/06 09:14:18;;;;;;;9.57;4.97;;;22.30;65.00;;;;;;4980555;28;20557;-72
2022/06/06 09:17:24;;;;;;;8.85;4.75;;;22.30;64.90;;;;;;5011604;28;20029;-72
2022/06/06 09:20:06;;;;;;;8.70;4.43;;;22.30;64.80;;;;;;5011328;28;20038;-72
2022/06/06 09:23:00;;;;;;;9.50;4.80;;;22.40;64.80;;;;;;5010727;28;20441;-72
2022/06/06 09:25:52;;;;;;;14.70;5.20;;;22.30;64.70;;;;;;5004386;28;20017;-72
2022/06/06 09:28:35;;;;;;;7.25;4.60;;;22.30;64.70;;;;;;5008885;28;20112;-72
2022/06/06 09:31:25;;;;;;;13.43;4.90;;;22.30;64.60;;;;;;5011151;28;20034;-72
2022/06/06 09:34:15;;;;;;;10.90;4.70;;;22.30;64.60;;;;;;5011056;28;20038;-72
2022/06/06 09:37:06;;;;;;;10.20;4.57;;;22.30;64.60;;;;;;5010694;28;20032;-72
2022/06/06 09:39:53;;;;;;;10.10;4.53;;;22.40;64.60;;;;;;5003437;28;20018;-72
2022/06/06 09:42:25;;;;;;;10.65;5.32;;;22.30;64.60;;;;;;5002013;28;20099;-72
2022/06/06 09:45:06;;;;;;;10.50;5.13;;;22.30;64.40;;;;;;5007624;28;20139;-72
2022/06/06 09:48:02;;;;;;;8.35;4.70;;;22.30;64.50;;;;;;5007157;28;20313;-72
2022/06/06 09:50:49;;;;;;;10.55;4.72;;;22.40;64.30;;;;;;5002198;28;20036;-73
2022/06/06 09:53:15;;;;;;;9.23;4.40;;;22.30;64.20;;;;;;5007139;28;20030;-72
2022/06/06 09:59:16;;;;;;;12.43;4.28;;;22.40;64.10;;;;;;5006313;28;20049;-68
2022/06/06 10:01:45;;;;;;;13.63;5.10;;;22.40;63.60;;;;;;5007593;28;20109;-69
2022/06/06 10:04:36;;;;;;;11.80;5.15;;;22.40;63.60;;;;;;4991278;28;20061;-69
2022/06/06 10:07:27;;;;;;;11.90;5.25;;;22.40;63.70;;;;;;5010024;28;20108;-68
2022/06/06 10:10:08;;;;;;;11.35;4.95;;;22.40;63.50;;;;;;5008482;28;20026;-69
2022/06/06 10:12:53;;;;;;;10.38;5.18;;;22.30;63.30;;;;;;5010851;28;20526;-69
2022/06/06 10:15:59;;;;;;;11.13;5.03;;;22.30;63.10;;;;;;5011112;28;20142;-69
2022/06/06 10:19:02;;;;;;;9.18;4.70;;;22.40;63.10;;;;;;5005895;28;20042;-69
2022/06/06 10:21:52;;;;;;;9.30;4.78;;;22.40;62.80;;;;;;4973962;28;20138;-69
2022/06/06 10:25:07;;;;;;;9.70;4.60;;;22.40;62.50;;;;;;4991884;28;20034;-68
2022/06/06 10:27:47;;;;;;;7.65;4.68;;;22.40;62.50;;;;;;5010250;28;20030;-68
2022/06/06 10:30:22;;;;;;;7.80;4.32;;;22.40;62.20;;;;;;5009433;28;20038;-69
2022/06/06 10:33:26;;;;;;;10.20;4.57;;;22.40;62.10;;;;;;5010693;28;20470;-68
2022/06/06 10:36:14;;;;;;;7.03;4.53;;;22.40;62.10;;;;;;4991154;28;20149;-69
2022/06/06 10:39:18;;;;;;;6.78;4.38;;;22.40;62.20;;;;;;5010493;28;20030;-69
2022/06/06 10:42:22;;;;;;;7.00;4.50;;;22.30;62.30;;;;;;4999944;28;20052;-68
2022/06/06 10:45:15;;;;;;;10.85;5.00;;;22.40;62.30;;;;;;5013781;28;20550;-69
2022/06/06 10:47:58;;;;;;;7.05;4.15;;;22.30;62.50;;;;;;5023673;28;20164;-69
2022/06/06 10:54:05;;;;;;;8.85;4.40;;;22.40;62.80;;;;;;4950504;28;20042;-73
2022/06/06 10:56:52;;;;;;;5.85;4.13;;;22.40;62.90;;;;;;5012746;28;20032;-72
2022/06/06 10:59:46;;;;;;;7.85;4.05;;;22.40;62.90;;;;;;5011081;28;20026;-71
2022/06/06 11:02:30;;;;;;;7.70;4.53;;;22.40;62.90;;;;;;5011470;28;20406;-72
2022/06/06 11:05:37;;;;;;;7.15;4.07;;;22.40;62.90;;;;;;5011438;28;20032;-72
2022/06/06 11:08:14;;;;;;;8.90;4.45;;;22.40;62.90;;;;;;5008392;28;20073;-72
2022/06/06 11:10:43;;;;;;;10.95;4.90;;;22.50;62.80;;;;;;5008080;28;20022;-72
2022/06/06 11:13:33;;;;;;;7.75;4.50;;;22.50;63.00;;;;;;5013240;28;20112;-72
2022/06/06 11:16:06;;;;;;;7.88;3.95;;;22.50;63.00;;;;;;5011001;28;20057;-74
2022/06/06 11:19:13;;;;;;;7.00;4.40;;;22.50;63.00;;;;;;5011781;28;20056;-73
2022/06/06 11:21:59;;;;;;;7.25;4.45;;;22.50;62.70;;;;;;4939334;28;20071;-73
2022/06/06 11:24:50;;;;;;;6.95;4.35;;;22.50;62.50;;;;;;5003684;28;20034;-73
2022/06/06 11:27:51;;;;;;;6.95;4.30;;;22.50;61.90;;;;;;5004818;28;20509;-70
2022/06/06 11:30:32;;;;;;;7.38;4.15;;;22.50;61.70;;;;;;4932857;29;20032;-72
2022/06/06 11:33:06;;;;;;;7.28;4.75;;;22.50;61.90;;;;;;5004408;28;20213;-72
2022/06/06 11:36:04;;;;;;;9.60;6.63;;;22.50;62.00;;;;;;5006570;28;20435;-73
2022/06/06 11:38:55;;;;;;;11.50;5.45;;;22.50;62.20;;;;;;5007728;28;20045;-71
2022/06/06 11:42:04;;;;;;;7.70;4.95;;;22.50;62.10;;;;;;5010996;28;20036;-71
2022/06/06 11:44:54;;;;;;;8.35;4.80;;;22.50;61.90;;;;;;5006666;28;20510;-72
2022/06/06 11:47:41;;;;;;;10.98;4.78;;;22.50;61.70;;;;;;5010729;28;20026;-75
2022/06/06 11:50:31;;;;;;;9.10;4.93;;;22.50;62.00;;;;;;5012622;28;20062;-72
2022/06/06 11:53:24;;;;;;;12.23;4.63;;;22.50;62.00;;;;;;5010377;28;20463;-71
2022/06/06 11:56:04;;;;;;;6.28;3.95;;;22.50;62.00;;;;;;5011037;28;20057;-71
2022/06/06 11:58:50;;;;;;;7.68;4.07;;;22.50;61.70;;;;;;5013576;28;20104;-71
2022/06/06 12:01:39;;;;;;;12.52;4.88;;;22.50;61.40;;;;;;5010415;28;20386;-71
2022/06/06 12:04:23;;;;;;;9.50;4.18;;;22.50;61.40;;;;;;5023552;28;20029;-71
2022/06/06 12:07:14;;;;;;;6.70;3.70;;;22.50;61.20;;;;;;5008445;28;20046;-71
2022/06/06 12:10:21;;;;;;;6.15;3.88;;;22.50;61.20;;;;;;5011443;28;20080;-74
2022/06/06 12:13:12;;;;;;;8.23;3.88;;;22.50;61.40;;;;;;5019772;28;20053;-70
2022/06/06 12:15:38;;;;;;;8.88;4.43;;;22.60;61.80;;;;;;5012153;28;20112;-71
2022/06/06 12:18:29;;;;;;;9.45;4.32;;;22.60;61.50;;;;;;4978627;28;20617;-71
2022/06/06 12:21:21;;;;;;;9.13;4.10;;;22.60;61.60;;;;;;5012505;28;20037;-71
2022/06/06 12:24:02;;;;;;;7.55;4.20;;;22.50;61.60;;;;;;5011249;28;20066;-70
2022/06/06 12:26:38;;;;;;;12.32;4.07;;;22.50;61.70;;;;;;5011292;28;20034;-71
2022/06/06 12:29:44;;;;;;;5.70;3.80;;;22.40;61.70;;;;;;5011282;28;20128;-71
2022/06/06 12:32:12;;;;;;;7.93;3.75;;;22.40;61.90;;;;;;5010663;28;20026;-71
2022/06/06 12:34:46;;;;;;;5.90;3.83;;;22.40;62.10;;;;;;5010640;28;20449;-70
2022/06/06 12:37:24;;;;;;;6.35;4.03;;;22.40;62.10;;;;;;5011982;28;20545;-70
2022/06/06 12:40:09;;;;;;;6.47;3.83;;;22.40;62.10;;;;;;5011445;28;20057;-71
2022/06/06 12:42:54;;;;;;;7.82;3.75;;;22.40;62.20;;;;;;5010517;28;20432;-71
2022/06/06 12:45:33;;;;;;;9.43;3.83;;;22.40;62.30;;;;;;5011979;28;20474;-70
2022/06/06 12:48:42;;;;;;;7.20;3.97;;;22.40;62.20;;;;;;5011620;28;20087;-70
2022/06/06 12:51:23;;;;;;;;;;;22.40;62.20;;;;;;5012133;28;20398;-70
2022/06/06 12:54:07;;;;;;;6.22;3.97;;;22.40;62.40;;;;;;5010630;28;19917;-71
2022/06/06 12:56:53;;;;;;;7.03;3.90;;;22.30;62.20;;;;;;5011651;28;20102;-71
2022/06/06 12:59:24;;;;;;;7.95;4.05;;;22.40;62.30;;;;;;5010350;28;20026;-71
2022/06/06 13:02:18;;;;;;;6.00;3.60;;;22.30;62.30;;;;;;5010887;28;20029;-71
2022/06/06 13:04:54;;;;;;;6.50;3.72;;;22.40;62.30;;;;;;5011784;28;20033;-71
2022/06/06 13:07:36;;;;;;;4.75;3.30;;;22.40;62.30;;;;;;5011222;28;20030;-71
2022/06/06 13:10:40;;;;;;;7.35;4.03;;;22.30;62.30;;;;;;5011900;28;20038;-71
2022/06/06 13:13:40;;;;;;;5.85;4.03;;;22.40;62.30;;;;;;5011348;28;20088;-70
2022/06/06 13:16:34;;;;;;;6.05;3.85;;;22.40;62.30;;;;;;4981050;28;20034;-71
2022/06/06 13:19:05;;;;;;;6.40;3.50;;;22.40;62.30;;;;;;5010080;28;20038;-71
2022/06/06 13:21:55;;;;;;;6.78;3.58;;;22.40;62.30;;;;;;4993752;28;20399;-71
2022/06/06 13:24:41;;;;;;;3.97;3.15;;;22.40;62.30;;;;;;5011546;28;20057;-71
2022/06/06 13:27:55;;;;;;;5.82;3.42;;;22.40;62.30;;;;;;4993745;28;20394;-71
2022/06/06 13:30:24;;;;;;;4.90;3.58;;;22.40;62.30;;;;;;4951595;28;20034;-72
2022/06/06 13:33:20;;;;;;;10.05;3.85;;;22.40;62.30;;;;;;5011031;28;20033;-72
2022/06/06 13:36:04;;;;;;;4.38;3.22;;;22.40;62.30;;;;;;5010022;28;20580;-71
2022/06/06 13:38:48;;;;;;;6.63;3.88;;;22.40;62.40;;;;;;5009613;28;20625;-71
2022/06/06 13:41:19;;;;;;;6.20;3.97;;;22.40;62.40;;;;;;5010080;28;20022;-72
2022/06/06 13:44:03;;;;;;;7.68;4.20;;;22.40;62.50;;;;;;5011635;28;20104;-71
2022/06/06 13:46:50;;;;;;;6.97;4.25;;;22.40;62.40;;;;;;5010015;28;20388;-72
2022/06/06 13:49:32;;;;;;;4.88;3.38;;;22.40;62.40;;;;;;5011331;28;20507;-72
2022/06/06 13:52:22;;;;;;;6.95;3.72;;;22.30;62.40;;;;;;5009787;28;20413;-72
2022/06/06 13:54:48;;;;;;;;;;;22.30;62.40;;;;;;5011425;28;20030;-72
2022/06/06 13:57:31;;;;;;;5.53;3.70;;;22.40;62.40;;;;;;5010611;28;20016;-71
2022/06/06 14:00:20;;;;;;;8.55;4.25;;;22.40;62.50;;;;;;5010197;28;20497;-72
2022/06/06 14:03:06;;;;;;;5.68;3.33;;;22.30;62.40;;;;;;5010914;28;20113;-72
2022/06/06 14:05:50;;;;;;;5.07;3.70;;;22.40;62.40;;;;;;5010177;28;20040;-71
2022/06/06 14:08:20;;;;;;;4.85;3.30;;;22.40;62.40;;;;;;5011079;28;20029;-71
2022/06/06 14:11:05;;;;;;;6.10;3.60;;;22.30;62.40;;;;;;5010895;28;20029;-71
2022/06/06 14:13:54;;;;;;;7.20;3.60;;;22.40;62.40;;;;;;5011535;28;20034;-72